Time;durP1;ratioP1;P1;durP2;ratioP2;P2;SDS_P1;SDS_P2;PMS_P1;PMS_P2;Temp;Humidity;BMP_temperature;BMP_pressure;BME280_temperature;BME280_humidity;BME280_pressure;Samples;Min_cycle;Max_cycle;Signal;HPM_P1;HPM_P2
2021/11/03 00:00:12;;;;;;;;;20.50;19.25;;;;;12.36;68.53;99655.09;4980975;28;45505;-80
2021/11/03 00:02:37;;;;;;;;;21.50;16.25;;;;;12.36;68.16;99649.81;4982105;28;45255;-80
2021/11/03 00:05:04;;;;;;;;;17.00;16.00;;;;;12.36;68.74;99649.81;4982010;28;45230;-80
2021/11/03 00:07:30;;;;;;;;;24.25;20.50;;;;;12.35;68.43;99648.13;4982304;28;45495;-80
2021/11/03 00:09:58;;;;;;;;;21.00;18.25;;;;;12.36;68.39;99646.34;4980343;28;46310;-82
2021/11/03 00:12:25;;;;;;;;;16.00;16.00;;;;;12.38;68.43;99653.22;4981826;28;45290;-82
2021/11/03 00:14:50;;;;;;;;;17.25;16.25;;;;;12.37;68.41;99646.22;4981215;28;45373;-83
2021/11/03 00:17:15;;;;;;;;;17.00;15.75;;;;;12.36;68.68;99646.34;4981839;28;45350;-83
2021/11/03 00:19:41;;;;;;;;;15.25;14.00;;;;;12.36;68.70;99649.81;4980850;28;45401;-83
2021/11/03 00:22:06;;;;;;;;;19.75;15.25;;;;;12.37;68.25;99637.50;4981612;28;45327;-84
2021/11/03 00:24:34;;;;;;;;;16.00;15.00;;;;;12.35;68.49;99637.56;4982169;28;45282;-84
2021/11/03 00:27:00;;;;;;;;;20.75;18.50;;;;;12.37;68.23;99640.13;4972801;28;45484;-82
2021/11/03 00:29:26;;;;;;;;;22.50;17.75;;;;;12.34;68.53;99633.25;4967950;28;45650;-81
2021/11/03 00:31:51;;;;;;;;;16.75;15.50;;;;;12.35;68.26;99628.81;4981235;28;45271;-81
2021/11/03 00:34:17;;;;;;;;;16.50;15.75;;;;;12.31;67.80;99620.25;4965950;28;45507;-81
2021/11/03 00:36:42;;;;;;;;;22.00;17.00;;;;;12.29;68.44;99621.28;4962201;28;45315;-81
2021/11/03 00:39:07;;;;;;;;;20.25;16.75;;;;;12.30;68.23;99620.34;4965009;28;46455;-81
2021/11/03 00:41:33;;;;;;;;;18.00;13.50;;;;;12.31;68.39;99622.03;4981621;28;45282;-81
2021/11/03 00:43:58;;;;;;;;;14.50;14.50;;;;;12.29;68.39;99616.00;4981630;28;45317;-81
2021/11/03 00:46:23;;;;;;;;;17.25;16.25;;;;;12.28;68.38;99625.69;4965035;28;45327;-81
2021/11/03 00:48:49;;;;;;;;;16.00;15.50;;;;;12.29;68.12;99616.88;4962514;28;45992;-81
2021/11/03 00:51:14;;;;;;;;;15.75;15.00;;;;;12.27;68.18;99621.38;4981435;28;45428;-81
2021/11/03 00:53:40;;;;;;;;;17.00;16.50;;;;;12.26;68.05;99612.63;4981415;28;45502;-81
2021/11/03 00:56:05;;;;;;;;;19.00;15.75;;;;;12.26;68.35;99614.41;4981499;28;45342;-81
2021/11/03 00:58:31;;;;;;;;;18.25;15.00;;;;;12.26;68.55;99617.03;4975360;28;46043;-82
2021/11/03 01:00:56;;;;;;;;;13.50;13.50;;;;;12.26;68.51;99611.78;4981500;28;45415;-82
2021/11/03 01:03:22;;;;;;;;;15.00;13.25;;;;;12.26;68.55;99607.34;4980305;28;45288;-82
2021/11/03 01:05:47;;;;;;;;;14.75;14.75;;;;;12.28;69.06;99604.63;4963828;28;45223;-82
2021/11/03 01:08:13;;;;;;;;;13.00;12.25;;;;;12.29;68.74;99602.84;4979933;28;46323;-83
2021/11/03 01:10:45;;;;;;;;;14.75;14.00;;;;;12.30;68.98;99596.66;4981350;28;45282;-83
2021/11/03 01:13:11;;;;;;;;;14.25;14.00;;;;;12.29;68.76;99595.78;4980953;28;45364;-83
2021/11/03 01:15:38;;;;;;;;;12.50;11.00;;;;;12.30;68.68;99601.91;4980608;28;45280;-83
2021/11/03 01:18:04;;;;;;;;;14.75;12.75;;;;;12.29;68.66;99594.94;4969911;28;45267;-83
2021/11/03 01:20:30;;;;;;;;;13.25;13.00;;;;;12.31;68.56;99603.59;4976544;28;45441;-83
2021/11/03 01:22:56;;;;;;;;;13.00;12.50;;;;;12.29;68.57;99600.19;4944081;28;45232;-82
2021/11/03 01:25:24;;;;;;;;;12.75;11.50;;;;;12.30;68.57;99602.75;4961646;28;45433;-82
2021/11/03 01:27:50;;;;;;;;;15.00;12.00;;;;;12.27;68.73;99597.66;4974116;28;46354;-82
2021/11/03 01:30:18;;;;;;;;;12.00;12.00;;;;;12.26;68.74;99602.09;4959020;28;45450;-82
2021/11/03 01:32:45;;;;;;;;;11.75;11.75;;;;;12.26;68.58;99599.44;4980926;28;45357;-83
2021/11/03 01:35:11;;;;;;;;;11.00;10.00;;;;;12.27;68.64;99608.22;4980896;28;45262;-86
2021/11/03 01:37:37;;;;;;;;;11.75;9.25;;;;;12.25;68.57;99602.16;4980067;28;46450;-85
2021/11/03 01:40:07;;;;;;;;;11.00;9.00;;;;;12.25;68.25;99603.00;4980497;28;45316;-85
2021/11/03 01:42:33;;;;;;;;;12.75;11.75;;;;;12.25;68.13;99605.66;4980485;28;45299;-86
2021/11/03 01:44:59;;;;;;;;;10.25;10.00;;;;;12.22;68.35;99605.00;4980628;28;45221;-86
2021/11/03 01:47:46;;;;;;;;;11.25;10.75;;;;;12.21;68.05;99604.13;4968848;28;45283;-86
2021/11/03 01:50:11;;;;;;;;;12.50;11.00;;;;;12.21;67.96;99603.28;4961204;28;45559;-86
2021/11/03 01:52:37;;;;;;;;;13.50;10.25;;;;;12.17;68.21;99604.41;4961135;28;45409;-86
2021/11/03 01:55:04;;;;;;;;;11.00;10.50;;;;;12.16;68.29;99603.56;4961048;28;45397;-86
2021/11/03 01:57:34;;;;;;;;;10.25;8.50;;;;;12.13;67.98;99601.94;4962012;28;45557;-85
2021/11/03 02:00:06;;;;;;;;;9.00;7.75;;;;;12.10;68.03;99609.97;4979518;28;45223;-86
2021/11/03 02:02:33;;;;;;;;;7.50;7.00;;;;;12.08;68.48;99611.84;4980406;28;45421;-86
2021/11/03 02:04:59;;;;;;;;;8.75;8.75;;;;;12.06;68.27;99597.94;4980468;28;45671;-86
2021/11/03 02:07:26;;;;;;;;;7.50;7.00;;;;;12.06;68.27;99603.19;4979308;28;45437;-86
2021/11/03 02:09:52;;;;;;;;;7.00;7.00;;;;;12.07;68.17;99604.06;4977259;28;45428;-86
2021/11/03 02:12:20;;;;;;;;;6.75;6.75;;;;;12.06;68.21;99597.94;4967890;28;45355;-86
2021/11/03 02:14:47;;;;;;;;;6.00;6.00;;;;;12.04;68.15;99600.66;4961885;28;46538;-86
2021/11/03 02:17:17;;;;;;;;;9.00;7.50;;;;;12.03;67.98;99595.47;4957844;28;47024;-87
2021/11/03 02:19:44;;;;;;;;;5.75;5.75;;;;;12.05;68.21;99590.97;4964616;28;45254;-87
2021/11/03 02:22:27;;;;;;;;;4.25;4.25;;;;;12.03;68.01;99591.06;4968033;28;45722;-87
2021/11/03 02:24:55;;;;;;;;;6.00;6.00;;;;;12.02;68.08;99599.91;4960058;28;46696;-87
2021/11/03 02:27:25;;;;;;;;;6.25;6.25;;;;;11.98;67.71;99589.63;4971531;28;46650;-88
2021/11/03 02:29:51;;;;;;;;;6.50;4.75;;;;;11.93;68.11;99596.00;4967075;28;45228;-85
2021/11/03 02:32:27;;;;;;;;;5.00;5.00;;;;;11.91;67.65;99584.72;4967156;28;45558;-82
2021/11/03 02:34:52;;;;;;;;;5.75;5.75;;;;;11.90;67.79;99585.63;4967744;28;45607;-89
2021/11/03 02:37:26;;;;;;;;;4.25;4.25;;;;;11.89;67.82;99589.22;4986649;28;45436;-89
2021/11/03 02:40:15;;;;;;;;;7.00;4.00;;;;;11.86;67.94;99596.44;4986377;28;45589;-89
2021/11/03 02:42:46;;;;;;;;;4.00;4.00;;;;;11.82;67.72;99591.38;4975976;28;45520;-89
2021/11/03 02:45:46;;;;;;;;;3.75;3.75;;;;;11.83;68.09;99605.34;4983865;28;45323;-88
2021/11/03 02:48:13;;;;;;;;;4.00;3.25;;;;;11.80;68.14;99595.84;4962911;28;45528;-95
2021/11/03 02:50:55;;;;;;;;;7.00;5.00;;;;;11.80;68.17;99597.66;4949611;28;45200;-91
2021/11/03 02:53:21;;;;;;;;;7.50;5.00;;;;;11.81;67.78;99610.72;4952746;28;45544;-86
2021/11/03 02:55:46;;;;;;;;;6.75;6.50;;;;;11.79;68.08;99609.09;4985550;28;45357;-85
2021/11/03 02:58:12;;;;;;;;;4.50;4.50;;;;;11.78;67.95;99600.34;4985819;28;45254;-84
2021/11/03 03:00:37;;;;;;;;;5.00;5.00;;;;;11.72;68.14;99605.13;4986579;28;45320;-83
2021/11/03 03:03:03;;;;;;;;;4.75;3.75;;;;;11.68;68.04;99607.91;4986329;28;45338;-86
2021/11/03 03:05:28;;;;;;;;;5.00;5.00;;;;;11.68;67.72;99613.19;4985026;28;45449;-85
2021/11/03 03:07:54;;;;;;;;;7.00;7.00;;;;;11.68;67.99;99613.19;4968376;28;46118;-86
2021/11/03 03:10:19;;;;;;;;;5.50;5.25;;;;;11.66;68.05;99606.31;4986073;28;45265;-86
2021/11/03 03:12:45;;;;;;;;;7.00;6.75;;;;;11.65;67.94;99605.47;4986161;28;45273;-86
2021/11/03 03:15:10;;;;;;;;;6.00;5.25;;;;;11.67;68.02;99605.38;4984740;28;45511;-86
2021/11/03 03:17:36;;;;;;;;;11.25;6.75;;;;;11.64;68.21;99611.66;4953472;28;47338;-85
2021/11/03 03:20:02;;;;;;;;;7.00;7.00;;;;;11.66;68.09;99615.06;4966631;28;45286;-86
2021/11/03 03:22:27;;;;;;;;;7.00;5.50;;;;;11.64;67.96;99605.53;4983111;28;45516;-86
2021/11/03 03:24:53;;;;;;;;;6.25;5.25;;;;;11.61;67.63;99609.19;4981599;28;45379;-87
2021/11/03 03:27:18;;;;;;;;;6.75;6.75;;;;;11.57;67.39;99615.56;4976462;28;45374;-83
2021/11/03 03:29:44;;;;;;;;;5.00;5.00;;;;;11.55;67.66;99622.72;4966240;28;45360;-82
2021/11/03 03:32:10;;;;;;;;;6.00;5.75;;;;;11.52;67.76;99617.59;4980510;28;45274;-82
2021/11/03 03:34:36;;;;;;;;;7.50;6.00;;;;;11.51;67.82;99624.66;4985541;28;45579;-82
2021/11/03 03:37:01;;;;;;;;;6.75;5.25;;;;;11.50;68.07;99630.00;4985854;28;45345;-83
2021/11/03 03:39:27;;;;;;;;;6.25;6.25;;;;;11.50;68.30;99630.00;4982963;28;45207;-83
2021/11/03 03:41:57;;;;;;;;;8.00;5.50;;;;;11.52;68.17;99630.75;4981756;28;45436;-83
2021/11/03 03:44:23;;;;;;;;;5.50;5.25;;;;;11.52;67.72;99634.25;4982264;28;45531;-83
2021/11/03 03:46:49;;;;;;;;;6.50;6.50;;;;;11.52;68.28;99644.78;4979516;28;45425;-83
2021/11/03 03:49:14;;;;;;;;;7.50;7.00;;;;;11.48;67.98;99644.09;4963896;28;45444;-82
2021/11/03 03:51:40;;;;;;;;;8.50;7.25;;;;;11.45;67.99;99644.28;4982381;28;45408;-83
2021/11/03 03:54:05;;;;;;;;;5.00;5.00;;;;;11.45;67.88;99646.03;4981501;28;45541;-82
2021/11/03 03:56:31;;;;;;;;;7.00;5.00;;;;;11.43;68.06;99648.75;4981800;28;45409;-81
2021/11/03 03:58:56;;;;;;;;;5.75;5.75;;;;;11.45;67.84;99653.94;4981192;28;46968;-81
2021/11/03 04:01:25;;;;;;;;;7.25;6.00;;;;;11.44;68.01;99653.09;4982570;28;45366;-81
2021/11/03 04:03:51;;;;;;;;;6.25;5.50;;;;;11.45;68.11;99654.78;4981911;28;45235;-81
2021/11/03 04:06:16;;;;;;;;;5.00;5.00;;;;;11.47;68.13;99658.19;4982222;28;45275;-82
2021/11/03 04:08:42;;;;;;;;;6.00;6.00;;;;;11.48;68.42;99661.69;4980664;28;45472;-82
2021/11/03 04:11:08;;;;;;;;;5.00;5.00;;;;;11.48;68.00;99667.75;4976216;28;45435;-81
2021/11/03 04:13:34;;;;;;;;;8.25;6.75;;;;;11.49;68.07;99665.97;4962763;28;45442;-81
2021/11/03 04:16:00;;;;;;;;;6.00;6.00;;;;;11.46;68.24;99661.75;4962805;28;46596;-81
2021/11/03 04:18:26;;;;;;;;;5.75;5.75;;;;;11.48;68.15;99664.31;4968525;28;45312;-81
2021/11/03 04:20:52;;;;;;;;;8.00;6.50;;;;;11.47;68.33;99660.81;4982080;28;45420;-81
2021/11/03 04:23:19;;;;;;;;;6.25;5.75;;;;;11.51;68.17;99664.13;4981736;28;45516;-83
2021/11/03 04:25:46;;;;;;;;;6.50;6.50;;;;;11.53;67.97;99664.88;4979014;28;45306;-84
2021/11/03 04:28:11;;;;;;;;;6.50;6.50;;;;;11.55;68.04;99670.06;4966628;28;45168;-84
2021/11/03 04:30:38;;;;;;;;;7.00;7.00;;;;;11.57;67.88;99673.47;4980113;28;45233;-80
2021/11/03 04:33:03;;;;;;;;;7.75;6.75;;;;;11.56;67.85;99675.25;4962332;28;45440;-80
2021/11/03 04:35:29;;;;;;;;;5.00;5.00;;;;;11.54;67.91;99685.00;4963947;28;45543;-80
2021/11/03 04:37:55;;;;;;;;;6.75;5.00;;;;;11.52;67.64;99688.66;4977582;28;45446;-81
2021/11/03 04:40:22;;;;;;;;;6.00;5.00;;;;;11.47;67.72;99684.50;4982078;28;45270;-80
2021/11/03 04:42:48;;;;;;;;;5.25;5.00;;;;;11.45;68.04;99683.75;4965814;28;45330;-82
2021/11/03 04:45:14;;;;;;;;;4.75;4.75;;;;;11.48;67.71;99690.63;4978610;28;46493;-82
2021/11/03 04:47:40;;;;;;;;;7.00;6.00;;;;;11.46;67.98;99692.47;4979512;28;45320;-83
2021/11/03 04:50:09;;;;;;;;;4.75;4.75;;;;;11.47;68.19;99688.91;4981133;28;45236;-82
2021/11/03 04:52:35;;;;;;;;;7.50;7.00;;;;;11.42;68.12;99689.16;4965833;28;45411;-81
2021/11/03 04:55:01;;;;;;;;;5.50;5.50;;;;;11.42;68.01;99691.78;4981401;28;45568;-85
2021/11/03 04:57:26;;;;;;;;;7.50;5.50;;;;;11.40;67.83;99692.78;4979776;28;45488;-84
2021/11/03 04:59:52;;;;;;;;;9.75;8.75;;;;;11.37;67.93;99693.81;4981578;28;45556;-83
2021/11/03 05:02:18;;;;;;;;;9.00;8.50;;;;;11.36;68.21;99694.72;4980992;28;45551;-82
2021/11/03 05:04:44;;;;;;;;;11.75;10.50;;;;;11.33;68.26;99692.28;4961638;28;45156;-82
2021/11/03 05:07:11;;;;;;;;;13.25;12.00;;;;;11.32;68.34;99696.69;4970188;28;45520;-84
2021/11/03 05:09:37;;;;;;;;;13.00;12.25;;;;;11.32;68.26;99686.16;4963808;28;45256;-84
2021/11/03 05:12:02;;;;;;;;;16.00;15.50;;;;;11.32;68.50;99690.56;4963122;28;47146;-84
2021/11/03 05:14:28;;;;;;;;;16.75;14.00;;;;;11.32;68.61;99693.19;4946786;28;46123;-83
2021/11/03 05:16:53;;;;;;;;;13.00;11.75;;;;;11.32;68.55;99693.19;4969772;28;45398;-83
2021/11/03 05:19:31;;;;;;;;;20.25;15.25;;;;;11.32;68.45;99696.69;4980735;28;45352;-83
2021/11/03 05:21:59;;;;;;;;;17.50;15.50;;;;;11.34;68.43;99688.69;4981091;28;45420;-84
2021/11/03 05:24:25;;;;;;;;;20.25;15.00;;;;;11.35;68.54;99695.69;4979530;28;46606;-84
2021/11/03 05:26:51;;;;;;;;;15.00;13.75;;;;;11.35;68.11;99706.19;4953282;28;46103;-85
2021/11/03 05:29:17;;;;;;;;;19.50;15.50;;;;;11.34;68.78;99704.50;4961341;28;45240;-84
2021/11/03 05:31:43;;;;;;;;;16.25;14.25;;;;;11.34;68.54;99704.50;4971308;28;45365;-83
2021/11/03 05:34:08;;;;;;;;;17.00;15.50;;;;;11.34;68.62;99701.84;4980692;28;46265;-82
2021/11/03 05:36:34;;;;;;;;;16.50;15.25;;;;;11.35;68.53;99701.78;4978827;28;45367;-81
2021/11/03 05:39:04;;;;;;;;;16.75;15.25;;;;;11.37;68.35;99704.34;4980926;28;45393;-81
2021/11/03 05:41:29;;;;;;;;;18.50;14.00;;;;;11.36;68.15;99707.88;4976784;28;45604;-81
2021/11/03 05:43:55;;;;;;;;;26.50;20.25;;;;;11.33;68.36;99708.06;4980640;28;46669;-81
2021/11/03 05:46:30;;;;;;;;;18.00;18.00;;;;;11.31;68.49;99707.31;4980571;28;45676;-81
2021/11/03 05:48:58;;;;;;;;;15.00;14.75;;;;;11.31;68.48;99713.38;4979139;28;45222;-84
2021/11/03 05:51:24;;;;;;;;;17.75;16.00;;;;;11.27;68.41;99709.22;4979704;28;45477;-84
2021/11/03 05:53:49;;;;;;;;;20.50;16.25;;;;;11.24;68.10;99710.25;4962032;28;47097;-85
2021/11/03 05:56:15;;;;;;;;;19.00;16.25;;;;;11.23;68.34;99716.44;4948043;28;45342;-82
2021/11/03 05:58:41;;;;;;;;;20.25;17.00;;;;;11.20;68.39;99716.59;4967183;28;45306;-82
2021/11/03 06:01:07;;;;;;;;;23.50;19.00;;;;;11.21;68.54;99714.81;4979993;28;45379;-82
2021/11/03 06:03:33;;;;;;;;;18.25;17.25;;;;;11.23;68.59;99721.72;4977944;28;45451;-77
2021/11/03 06:05:58;;;;;;;;;19.25;18.00;;;;;11.25;68.52;99724.25;4980312;28;45440;-80
2021/11/03 06:08:23;;;;;;;;;19.75;16.50;;;;;11.24;68.61;99726.03;4979448;28;45222;-80
2021/11/03 06:10:51;;;;;;;;;16.50;15.00;;;;;11.27;68.57;99724.16;4980221;28;45484;-80
2021/11/03 06:13:18;;;;;;;;;17.00;14.25;;;;;11.28;68.45;99725.88;4964396;28;45665;-81
2021/11/03 06:15:43;;;;;;;;;17.50;14.25;;;;;11.30;68.46;99729.25;4960807;28;45795;-81
2021/11/03 06:18:10;;;;;;;;;13.25;13.25;;;;;11.29;68.50;99727.56;4975944;28;45255;-77
2021/11/03 06:20:36;;;;;;;;;19.00;15.75;;;;;11.28;68.36;99731.13;4979176;28;45695;-79
2021/11/03 06:23:03;;;;;;;;;16.00;14.25;;;;;11.27;68.46;99718.91;4979889;28;45463;-80
2021/11/03 06:25:29;;;;;;;;;19.25;15.00;;;;;11.30;68.45;99729.25;4978902;28;45317;-81
2021/11/03 06:27:56;;;;;;;;;13.50;12.00;;;;;11.31;68.59;99731.81;4968404;28;45462;-81
2021/11/03 06:30:26;;;;;;;;;15.00;15.00;;;;;11.30;68.50;99729.25;4961170;28;45291;-80
2021/11/03 06:32:51;;;;;;;;;17.50;13.00;;;;;11.28;68.70;99731.13;4979724;28;45451;-79
2021/11/03 06:35:17;;;;;;;;;15.25;14.75;;;;;11.30;68.45;99747.69;4980166;28;45385;-79
2021/11/03 06:37:42;;;;;;;;;15.75;13.75;;;;;11.27;68.59;99739.94;4979983;28;45274;-82
2021/11/03 06:40:12;;;;;;;;;17.00;15.75;;;;;11.28;68.71;99752.19;4961028;28;45479;-79
2021/11/03 06:42:37;;;;;;;;;19.75;18.50;;;;;11.25;68.72;99754.03;4969139;28;46531;-77
2021/11/03 06:45:06;;;;;;;;;15.50;15.50;;;;;11.24;68.94;99747.06;4975192;28;45349;-78
2021/11/03 06:47:32;;;;;;;;;18.00;17.00;;;;;11.28;69.27;99753.03;4943400;28;45353;-78
2021/11/03 06:49:57;;;;;;;;;22.00;19.75;;;;;11.30;68.89;99758.19;4979285;28;45220;-78
2021/11/03 06:52:23;;;;;;;;;17.50;16.25;;;;;11.34;68.96;99760.59;4979919;28;45361;-77
2021/11/03 06:54:48;;;;;;;;;17.50;16.00;;;;;11.34;68.84;99767.63;4970494;28;47047;-77
2021/11/03 06:57:14;;;;;;;;;23.50;20.00;;;;;11.31;68.78;99765.19;4961608;28;45418;-77
2021/11/03 06:59:40;;;;;;;;;23.50;18.50;;;;;11.33;68.79;99774.66;4960212;28;45429;-77
2021/11/03 07:02:06;;;;;;;;;24.75;22.00;;;;;11.33;68.79;99781.72;4963540;28;45353;-77
2021/11/03 07:04:32;;;;;;;;;25.25;22.00;;;;;11.29;68.63;99781.03;4966541;28;45543;-77
2021/11/03 07:06:57;;;;;;;;;28.25;23.75;;;;;11.26;68.77;99786.44;4961146;28;45564;-77
2021/11/03 07:09:24;;;;;;;;;24.75;22.00;;;;;11.27;68.80;99792.56;4960082;28;45413;-77
2021/11/03 07:11:50;;;;;;;;;29.50;23.50;;;;;11.23;68.91;99798.00;4969493;28;45436;-77
2021/11/03 07:14:15;;;;;;;;;25.25;21.75;;;;;11.24;68.74;99797.03;4980402;28;45400;-76
2021/11/03 07:16:41;;;;;;;;;22.25;22.00;;;;;11.24;68.94;99809.34;4981204;28;45819;-77
2021/11/03 07:19:06;;;;;;;;;28.50;24.75;;;;;11.22;68.88;99809.44;4981755;28;45626;-77
2021/11/03 07:21:32;;;;;;;;;26.75;25.25;;;;;11.23;69.07;99812.91;4960052;28;47156;-77
2021/11/03 07:23:57;;;;;;;;;35.25;29.00;;;;;11.22;68.79;99811.19;4967960;28;45235;-77
2021/11/03 07:26:23;;;;;;;;;34.75;24.00;;;;;11.21;68.89;99820.03;4977963;28;46485;-77
2021/11/03 07:28:49;;;;;;;;;22.25;21.00;;;;;11.23;68.92;99829.56;4970242;28;45439;-78
2021/11/03 07:31:14;;;;;;;;;26.25;24.25;;;;;11.22;68.86;99827.84;4980039;28;46292;-76
2021/11/03 07:33:41;;;;;;;;;26.00;26.00;;;;;11.20;68.88;99832.34;4952723;28;45946;-76
2021/11/03 07:36:10;;;;;;;;;38.75;30.25;;;;;11.17;68.58;99835.09;4973518;28;45702;-76
2021/11/03 07:38:36;;;;;;;;;39.75;28.50;;;;;11.14;68.57;99838.75;4959160;28;46010;-76
2021/11/03 07:41:03;;;;;;;;;34.00;29.50;;;;;11.10;68.57;99846.88;4974128;28;45629;-76
2021/11/03 07:43:30;;;;;;;;;42.50;33.00;;;;;11.05;68.86;99843.59;4979330;28;46539;-76
2021/11/03 07:45:56;;;;;;;;;53.75;41.25;;;;;11.04;69.26;99853.25;4975025;28;46149;-75
2021/11/03 07:48:24;;;;;;;;;35.50;31.50;;;;;11.01;69.03;99856.91;4975351;28;45603;-76
2021/11/03 07:50:55;;;;;;;;;31.00;29.25;;;;;10.99;68.87;99850.00;4975666;28;46399;-76
2021/11/03 07:53:21;;;;;;;;;29.50;27.75;;;;;10.98;69.04;99858.84;4969678;28;45715;-76
2021/11/03 07:55:52;;;;;;;;;38.75;34.75;;;;;10.96;69.13;99865.97;4971037;28;46742;-76
2021/11/03 07:58:22;;;;;;;;;34.50;28.00;;;;;10.95;69.20;99867.72;4956005;28;47104;-76
2021/11/03 08:00:50;;;;;;;;;36.25;33.25;;;;;10.93;68.84;99873.97;4978015;28;46009;-75
2021/11/03 08:03:16;;;;;;;;;28.00;25.25;;;;;10.91;69.08;99882.78;4953772;28;46604;-76
2021/11/03 08:05:41;;;;;;;;;53.00;41.25;;;;;10.93;69.40;99887.13;4973972;28;47537;-76
2021/11/03 08:08:11;;;;;;;;;33.00;30.50;;;;;10.93;69.17;99892.38;4979261;28;45583;-76
2021/11/03 08:10:38;;;;;;;;;30.00;25.50;;;;;10.96;69.09;99901.00;4978082;28;45989;-75
2021/11/03 08:13:04;;;;;;;;;54.00;44.75;;;;;10.97;69.30;99894.78;4978251;28;46066;-76
2021/11/03 08:15:30;;;;;;;;;38.75;32.75;;;;;10.97;69.17;99896.56;4959580;28;45504;-75
2021/11/03 08:17:57;;;;;;;;;32.75;27.50;;;;;10.98;69.01;99904.41;4972420;28;45448;-75
2021/11/03 08:20:26;;;;;;;;;32.00;28.25;;;;;11.00;68.92;99909.56;4978903;28;45336;-75
2021/11/03 08:22:54;;;;;;;;;43.25;35.00;;;;;11.00;68.84;99914.84;4957839;28;45449;-76
2021/11/03 08:25:20;;;;;;;;;47.00;38.25;;;;;11.01;68.95;99911.28;4977888;28;45659;-75
2021/11/03 08:27:45;;;;;;;;;32.25;31.00;;;;;11.02;68.77;99915.59;4972219;28;45528;-75
2021/11/03 08:30:13;;;;;;;;;34.00;24.50;;;;;11.05;68.96;99919.88;4962384;28;45444;-75
2021/11/03 08:32:46;;;;;;;;;31.00;27.25;;;;;11.05;68.47;99923.34;4962057;28;45538;-75
2021/11/03 08:35:17;;;;;;;;;26.00;24.25;;;;;11.03;69.10;99927.84;4968317;28;45613;-75
2021/11/03 08:37:43;;;;;;;;;19.25;18.00;;;;;11.02;68.57;99931.38;4980888;28;45554;-75
2021/11/03 08:40:13;;;;;;;;;23.50;20.25;;;;;11.00;68.59;99934.09;4979906;28;46152;-75
2021/11/03 08:42:39;;;;;;;;;54.00;40.75;;;;;11.03;68.97;99939.22;4963798;28;45279;-75
2021/11/03 08:45:07;;;;;;;;;53.25;39.25;;;;;11.04;68.75;99937.41;4981138;28;45283;-75
2021/11/03 08:47:33;;;;;;;;;24.50;22.00;;;;;11.02;68.58;99940.13;4981552;28;45492;-75
2021/11/03 08:49:59;;;;;;;;;33.25;30.50;;;;;11.02;68.78;99934.88;4957378;28;47017;-75
2021/11/03 08:52:24;;;;;;;;;38.25;32.00;;;;;11.02;68.41;99934.00;4976592;28;45448;-75
2021/11/03 08:54:50;;;;;;;;;34.75;29.75;;;;;11.01;68.48;99932.31;4981349;28;45936;-75
2021/11/03 08:57:19;;;;;;;;;25.25;22.00;;;;;10.98;68.33;99935.94;4980160;28;45304;-75
2021/11/03 08:59:46;;;;;;;;;46.25;35.75;;;;;10.95;68.78;99938.72;4980360;28;45359;-75
2021/11/03 09:02:11;;;;;;;;;40.75;32.00;;;;;10.97;68.70;99939.50;4948760;28;45908;-75
2021/11/03 09:04:37;;;;;;;;;25.75;24.25;;;;;11.01;69.05;99938.41;4965085;28;46048;-75
2021/11/03 09:07:08;;;;;;;;;30.00;25.25;;;;;11.06;68.79;99942.63;4960784;28;46938;-75
2021/11/03 09:09:34;;;;;;;;;35.25;28.75;;;;;11.07;69.00;99944.31;4960837;28;47428;-75
2021/11/03 09:11:59;;;;;;;;;23.00;20.75;;;;;11.11;68.53;99941.44;4979458;28;45516;-75
2021/11/03 09:14:24;;;;;;;;;38.50;32.50;;;;;11.12;68.90;99937.91;4975771;28;45561;-75
2021/11/03 09:16:51;;;;;;;;;45.50;34.50;;;;;11.16;68.70;99950.91;4978424;28;45424;-75
2021/11/03 09:19:18;;;;;;;;;35.25;31.50;;;;;11.14;68.48;99946.56;4980517;28;46414;-75
2021/11/03 09:21:44;;;;;;;;;37.75;31.50;;;;;11.16;68.49;99954.38;4977805;28;45427;-75
2021/11/03 09:24:12;;;;;;;;;26.00;22.75;;;;;11.18;68.25;99957.81;4978037;28;45534;-75
2021/11/03 09:26:37;;;;;;;;;46.25;34.50;;;;;11.19;68.13;99970.03;4972514;28;45462;-75
2021/11/03 09:29:04;;;;;;;;;27.75;26.25;;;;;11.21;68.37;99967.34;4969802;28;46340;-75
2021/11/03 09:31:30;;;;;;;;;30.75;27.75;;;;;11.23;68.07;99970.75;4978836;28;45467;-75
2021/11/03 09:33:57;;;;;;;;;28.00;25.00;;;;;11.21;68.33;99975.22;4972078;28;45207;-75
2021/11/03 09:36:23;;;;;;;;;32.25;29.25;;;;;11.21;67.60;99978.69;4975699;28;45390;-75
2021/11/03 09:38:49;;;;;;;;;29.75;26.50;;;;;11.20;67.40;99977.00;4977716;28;46232;-75
2021/11/03 09:41:20;;;;;;;;;25.00;24.50;;;;;11.21;67.59;99985.75;4979069;28;45416;-75
2021/11/03 09:43:56;;;;;;;;;34.25;29.25;;;;;11.21;67.38;99986.56;4978879;28;45551;-75
2021/11/03 09:46:23;;;;;;;;;31.50;27.50;;;;;11.26;67.46;99991.63;4978763;28;45765;-75
2021/11/03 09:48:55;;;;;;;;;25.00;23.00;;;;;11.29;67.78;99998.50;4978504;28;45449;-75
2021/11/03 09:51:24;;;;;;;;;39.75;33.75;;;;;11.31;67.56;99999.31;4977252;28;45243;-75
2021/11/03 09:53:53;;;;;;;;;31.00;27.50;;;;;11.31;67.16;100001.94;4977316;28;45440;-75
2021/11/03 09:56:24;;;;;;;;;32.25;30.00;;;;;11.30;67.18;100006.34;4976520;28;45515;-75
2021/11/03 09:59:23;;;;;;;;;23.75;20.25;;;;;11.32;67.33;100001.00;4978607;28;45457;-75
2021/11/03 10:01:56;;;;;;;;;35.25;31.00;;;;;11.32;67.35;100001.00;4959703;28;45508;-75
2021/11/03 10:04:46;;;;;;;;;19.25;19.00;;;;;11.34;66.56;100000.00;4978809;28;45325;-75
2021/11/03 10:07:32;;;;;;;;;21.00;19.75;;;;;11.32;66.72;99996.59;4980569;28;45254;-75
2021/11/03 10:10:11;;;;;;;;;24.00;22.75;;;;;11.29;65.87;100003.78;4979678;28;45429;-75
2021/11/03 10:12:36;;;;;;;;;23.75;23.50;;;;;11.27;65.75;99997.75;4980089;28;45477;-75
2021/11/03 10:15:03;;;;;;;;;28.00;22.00;;;;;11.30;66.53;100008.13;4978976;28;45559;-75
2021/11/03 10:17:30;;;;;;;;;25.50;22.25;;;;;11.33;66.74;100011.44;4977172;28;45250;-75
2021/11/03 10:19:57;;;;;;;;;24.25;21.75;;;;;11.37;66.59;100009.53;4979500;28;45451;-75
2021/11/03 10:22:37;;;;;;;;;43.00;32.00;;;;;11.42;66.63;100015.44;4979236;28;45842;-75
2021/11/03 10:25:25;;;;;;;;;21.00;19.75;;;;;11.44;66.20;100016.19;4977744;28;45492;-75
2021/11/03 10:27:58;;;;;;;;;29.00;25.25;;;;;11.45;66.12;100011.78;4967661;28;45311;-75
2021/11/03 10:30:54;;;;;;;;;40.00;33.00;;;;;11.50;66.31;100022.09;4959235;28;47154;-75
2021/11/03 10:33:57;;;;;;;;;22.25;21.25;;;;;11.54;65.90;100021.00;4978963;28;45239;-75
2021/11/03 10:36:24;;;;;;;;;20.00;18.50;;;;;11.55;65.56;100014.84;4973396;28;45354;-75
2021/11/03 10:39:00;;;;;;;;;27.75;26.50;;;;;11.59;65.67;100025.13;4978416;28;46416;-75
2021/11/03 10:41:31;;;;;;;;;24.75;24.75;;;;;11.65;65.66;100020.50;4973970;28;46624;-75
2021/11/03 10:44:07;;;;;;;;;32.00;29.00;;;;;11.68;65.65;100018.56;4979893;28;45298;-75
2021/11/03 10:46:46;;;;;;;;;38.50;32.75;;;;;11.73;65.63;100022.75;4980115;28;45306;-75
2021/11/03 10:49:31;;;;;;;;;27.00;23.25;;;;;11.79;65.50;100025.06;4980385;28;45296;-75
2021/11/03 10:52:16;;;;;;;;;33.75;29.25;;;;;11.81;64.95;100026.69;4982691;28;45687;-75
2021/11/03 10:54:57;;;;;;;;;19.75;18.75;;;;;11.84;63.99;100027.47;4982700;28;45383;-75
2021/11/03 10:57:38;;;;;;;;;21.75;18.00;;;;;11.80;63.91;100017.09;4983284;28;45282;-75
2021/11/03 11:00:24;;;;;;;;;26.50;22.75;;;;;11.85;65.00;100024.78;4964115;28;46043;-75
2021/11/03 11:02:57;;;;;;;;;23.50;20.50;;;;;11.88;64.72;100026.38;4983135;28;46417;-76
2021/11/03 11:05:25;;;;;;;;;22.75;22.00;;;;;11.92;65.36;100025.31;4982141;28;45791;-75
2021/11/03 11:07:57;;;;;;;;;25.50;23.25;;;;;11.96;64.45;100034.75;4982556;28;45347;-75
2021/11/03 11:10:32;;;;;;;;;30.50;26.25;;;;;11.97;64.37;100033.84;4980365;28;45417;-75
2021/11/03 11:12:59;;;;;;;;;20.75;19.25;;;;;11.97;64.38;100033.00;4978632;28;45492;-75
2021/11/03 11:15:33;;;;;;;;;37.50;32.00;;;;;12.00;64.22;100023.13;4981513;28;45864;-75
2021/11/03 11:18:04;;;;;;;;;17.25;14.50;;;;;12.03;63.88;100030.88;4981223;28;45346;-75
2021/11/03 11:20:42;;;;;;;;;23.50;22.25;;;;;12.04;64.02;100027.34;4982113;28;45441;-75
2021/11/03 11:23:19;;;;;;;;;31.75;25.00;;;;;12.09;63.98;100037.63;4982851;28;46338;-75
2021/11/03 11:25:50;;;;;;;;;22.75;21.25;;;;;12.09;63.55;100039.41;4979011;28;45867;-75